Time;durP1;ratioP1;P1;durP2;ratioP2;P2;SDS_P1;SDS_P2;PMS_P1;PMS_P2;Temp;Humidity;BMP_temperature;BMP_pressure;BME280_temperature;BME280_humidity;BME280_pressure;Samples;Min_cycle;Max_cycle;Signal;HPM_P1;HPM_P2
2022/06/23 00:00:36;;;;;;;10.25;4.50;;;27.60;55.80;;;;;;5051334;28;20029;-70
2022/06/23 00:03:04;;;;;;;9.48;4.15;;;27.50;55.80;;;;;;5052548;28;20028;-72
2022/06/23 00:05:37;;;;;;;9.55;4.50;;;27.50;56.10;;;;;;5052617;28;20021;-73
2022/06/23 00:08:09;;;;;;;8.15;4.35;;;27.40;56.20;;;;;;5052881;28;20067;-70
2022/06/23 00:10:45;;;;;;;9.57;4.10;;;27.40;56.30;;;;;;5056299;28;20029;-75
2022/06/23 00:13:33;;;;;;;11.93;3.97;;;27.40;56.90;;;;;;5056395;28;20043;-71
2022/06/23 00:15:58;;;;;;;10.18;4.53;;;27.40;56.00;;;;;;5056581;28;20541;-73
2022/06/23 00:18:27;;;;;;;6.97;4.47;;;27.40;56.90;;;;;;5054933;28;20043;-71
2022/06/23 00:20:59;;;;;;;8.65;4.60;;;27.40;56.80;;;;;;5056005;28;20029;-70
2022/06/23 00:23:31;;;;;;;6.93;4.30;;;27.40;57.10;;;;;;5056223;28;20022;-75
2022/06/23 00:26:02;;;;;;;7.00;4.25;;;27.30;56.90;;;;;;5056284;28;20374;-74
2022/06/23 00:28:32;;;;;;;7.38;4.38;;;27.30;56.90;;;;;;5056002;28;20018;-72
2022/06/23 00:31:02;;;;;;;7.72;4.50;;;27.30;56.90;;;;;;5056285;28;20438;-70
2022/06/23 00:33:40;;;;;;;6.75;3.72;;;27.40;56.70;;;;;;5056082;28;20025;-71
2022/06/23 00:36:49;;;;;;;8.85;3.97;;;27.40;56.40;;;;;;5056204;28;20025;-71
2022/06/23 00:39:42;;;;;;;10.57;4.10;;;27.40;56.40;;;;;;5045457;28;20513;-71
2022/06/23 00:42:27;;;;;;;10.48;4.30;;;27.40;56.30;;;;;;5053563;28;20047;-73
2022/06/23 00:45:06;;;;;;;8.20;3.95;;;27.40;56.10;;;;;;5055817;28;20082;-69
2022/06/23 00:47:31;;;;;;;8.00;4.25;;;27.30;56.40;;;;;;5055576;28;20025;-69
2022/06/23 00:50:15;;;;;;;8.48;3.85;;;27.30;56.00;;;;;;5055682;28;20105;-70
2022/06/23 00:52:49;;;;;;;10.27;3.88;;;27.30;55.20;;;;;;5056017;28;20036;-72
2022/06/23 00:55:35;;;;;;;6.63;3.90;;;27.30;55.40;;;;;;5055955;28;20446;-70
2022/06/23 00:58:43;;;;;;;8.57;3.70;;;27.30;55.10;;;;;;5044357;28;20044;-70
2022/06/23 01:01:31;;;;;;;8.85;3.35;;;27.30;53.50;;;;;;5055244;28;20029;-71
2022/06/23 01:04:25;;;;;;;8.05;3.67;;;27.30;52.90;;;;;;5055723;28;20462;-71
2022/06/23 01:06:56;;;;;;;7.95;3.63;;;27.30;52.60;;;;;;5048805;28;20381;-72
2022/06/23 01:09:36;;;;;;;6.70;3.22;;;27.30;53.80;;;;;;5055426;28;20032;-72
2022/06/23 01:12:25;;;;;;;6.18;3.10;;;27.30;53.00;;;;;;5056658;28;20021;-78
2022/06/23 01:15:16;;;;;;;7.13;3.60;;;27.30;52.70;;;;;;5057105;28;20033;-77
2022/06/23 01:17:52;;;;;;;10.30;5.47;;;27.30;50.30;;;;;;5056508;28;20118;-77
2022/06/23 01:20:51;;;;;;;10.85;5.20;;;27.30;49.70;;;;;;5054684;28;20025;-69
2022/06/23 01:23:52;;;;;;;8.68;6.05;;;27.30;49.40;;;;;;5054032;28;20029;-71
2022/06/23 01:26:24;;;;;;;14.00;6.85;;;27.30;49.20;;;;;;5055249;28;20100;-71
2022/06/23 01:28:58;;;;;;;10.60;6.93;;;27.30;50.80;;;;;;5055390;28;20021;-72
2022/06/23 01:31:39;;;;;;;12.88;7.70;;;27.20;50.90;;;;;;5053936;28;20490;-72
2022/06/23 01:34:29;;;;;;;18.73;7.97;;;27.20;51.00;;;;;;5055069;28;20033;-71
2022/06/23 01:37:03;;;;;;;16.88;8.77;;;27.20;49.40;;;;;;5054847;28;20025;-70
2022/06/23 01:39:46;;;;;;;15.50;7.72;;;27.10;51.30;;;;;;5054898;28;20036;-70
2022/06/23 01:42:32;;;;;;;16.27;8.35;;;27.10;51.40;;;;;;5055114;28;20425;-74
2022/06/23 01:45:12;;;;;;;15.35;8.32;;;27.00;50.00;;;;;;5055000;28;20047;-73
2022/06/23 01:48:10;;;;;;;15.45;8.45;;;27.00;50.20;;;;;;5054880;28;20037;-77
2022/06/23 01:50:51;;;;;;;14.75;8.10;;;26.90;50.40;;;;;;5035048;28;20034;-78
2022/06/23 01:53:17;;;;;;;13.73;8.20;;;26.80;50.80;;;;;;5036743;28;20440;-77
2022/06/23 01:56:01;;;;;;;13.30;6.97;;;26.80;52.60;;;;;;5054692;28;20466;-74
2022/06/23 01:58:38;;;;;;;12.90;6.40;;;26.80;53.00;;;;;;5054497;28;20040;-73
2022/06/23 02:01:06;;;;;;;15.50;6.25;;;26.70;53.20;;;;;;5053126;28;20033;-77
2022/06/23 02:03:40;;;;;;;9.52;5.40;;;26.70;53.20;;;;;;5054345;28;20027;-77
2022/06/23 02:06:19;;;;;;;12.63;5.78;;;26.70;53.40;;;;;;5054241;28;20025;-73
2022/06/23 02:09:02;;;;;;;10.95;6.05;;;26.70;52.20;;;;;;5054510;28;20017;-75
2022/06/23 02:11:48;;;;;;;13.35;6.05;;;26.60;52.40;;;;;;5054103;28;20033;-76
2022/06/23 02:14:25;;;;;;;16.13;5.32;;;26.70;52.50;;;;;;5054068;28;20051;-74
2022/06/23 02:16:59;;;;;;;9.02;5.13;;;26.60;53.80;;;;;;5054176;28;20112;-74
2022/06/23 02:19:40;;;;;;;14.40;5.95;;;26.60;52.70;;;;;;5054189;28;20025;-79
2022/06/23 02:22:17;;;;;;;10.35;6.15;;;26.50;53.10;;;;;;5054140;28;20042;-76
2022/06/23 02:25:30;;;;;;;8.48;5.85;;;26.50;53.50;;;;;;5054313;28;20157;-75
2022/06/23 02:28:12;;;;;;;12.02;5.97;;;26.40;53.80;;;;;;5031849;28;20026;-76
2022/06/23 02:30:47;;;;;;;11.35;5.70;;;26.30;54.20;;;;;;5053222;28;20393;-73
2022/06/23 02:33:34;;;;;;;10.48;4.90;;;26.30;54.60;;;;;;5052892;28;20162;-77
2022/06/23 02:36:15;;;;;;;9.02;5.07;;;26.30;55.80;;;;;;5053937;28;20088;-76
2022/06/23 02:39:13;;;;;;;8.43;5.20;;;26.20;56.10;;;;;;5053395;28;20055;-76
2022/06/23 02:41:49;;;;;;;8.10;4.70;;;26.20;56.60;;;;;;5047276;28;20041;-77
2022/06/23 02:44:18;;;;;;;9.50;4.93;;;26.20;57.50;;;;;;5053738;28;20025;-72
2022/06/23 02:46:56;;;;;;;11.80;5.32;;;26.10;57.40;;;;;;5053528;28;20496;-72
2022/06/23 02:49:50;;;;;;;11.43;5.15;;;26.10;58.10;;;;;;5053618;28;20132;-79
2022/06/23 02:52:40;;;;;;;7.93;4.60;;;26.20;58.10;;;;;;5051933;28;20055;-74
2022/06/23 02:55:22;;;;;;;7.47;4.78;;;26.20;58.10;;;;;;5053509;28;20549;-73
2022/06/23 02:58:06;;;;;;;15.38;4.78;;;26.20;58.30;;;;;;5051539;28;20040;-75
2022/06/23 03:01:29;;;;;;;9.27;4.82;;;26.20;58.50;;;;;;5053262;28;20036;-74
2022/06/23 03:04:03;;;;;;;11.32;4.82;;;26.30;58.80;;;;;;5044784;28;20058;-76
2022/06/23 03:06:52;;;;;;;9.07;4.60;;;26.20;58.80;;;;;;5053873;28;20013;-76
2022/06/23 03:09:28;;;;;;;11.82;4.70;;;26.10;58.80;;;;;;5054232;28;20025;-77
2022/06/23 03:12:03;;;;;;;11.55;5.25;;;26.10;58.90;;;;;;5053736;28;20013;-76
2022/06/23 03:14:36;;;;;;;11.45;5.05;;;26.10;59.10;;;;;;5053178;28;20131;-78
2022/06/23 03:17:18;;;;;;;9.88;4.55;;;26.10;59.10;;;;;;5052947;28;20016;-79
2022/06/23 03:20:01;;;;;;;8.68;4.88;;;26.10;59.00;;;;;;5053000;28;20025;-76
2022/06/23 03:22:34;;;;;;;14.70;5.30;;;26.10;59.10;;;;;;5053096;28;20024;-77
2022/06/23 03:25:12;;;;;;;10.30;4.70;;;26.10;58.90;;;;;;5052988;28;20096;-78
2022/06/23 03:27:47;;;;;;;13.00;5.65;;;26.10;59.00;;;;;;5052823;28;20032;-79
2022/06/23 03:30:35;;;;;;;11.60;5.10;;;26.10;58.80;;;;;;5052738;28;20542;-76
2022/06/23 03:33:22;;;;;;;10.27;5.03;;;26.10;59.20;;;;;;5042506;28;20501;-76
2022/06/23 03:35:48;;;;;;;8.15;4.65;;;26.00;59.20;;;;;;5052059;28;20440;-74
2022/06/23 03:38:22;;;;;;;15.05;5.07;;;25.90;59.30;;;;;;5052757;28;20021;-75
2022/06/23 03:43:57;;;;;;;8.90;5.75;;;25.90;59.60;;;;;;5052659;28;20036;-77
2022/06/23 03:46:43;;;;;;;7.75;5.00;;;25.90;59.50;;;;;;5053144;28;20036;-77
2022/06/23 03:49:20;;;;;;;10.80;5.10;;;25.90;59.70;;;;;;5052973;28;20104;-72
2022/06/23 03:52:02;;;;;;;13.23;5.53;;;25.80;59.80;;;;;;5052534;28;20406;-76
2022/06/23 03:54:54;;;;;;;11.07;5.50;;;25.80;59.70;;;;;;5052783;28;20223;-76
2022/06/23 03:57:35;;;;;;;12.75;5.90;;;25.80;60.10;;;;;;5052780;28;20075;-71
2022/06/23 04:00:31;;;;;;;9.68;5.63;;;25.80;59.70;;;;;;5052639;28;20029;-70
2022/06/23 04:03:22;;;;;;;8.32;5.05;;;25.90;59.90;;;;;;5052433;28;20048;-70
2022/06/23 04:06:00;;;;;;;10.68;5.22;;;25.90;59.50;;;;;;5042458;28;20033;-71
2022/06/23 04:08:30;;;;;;;12.15;5.57;;;26.00;58.90;;;;;;5052536;28;20466;-73
2022/06/23 04:11:43;;;;;;;11.10;5.13;;;25.90;58.40;;;;;;5052326;28;20124;-71
2022/06/23 04:13:45;;;;;;;9.10;5.53;;;26.00;58.10;;;;;;5052137;28;20077;-72
2022/06/23 04:16:13;;;;;;;10.82;6.93;;;26.00;57.70;;;;;;5052250;28;20474;-70
2022/06/23 04:18:46;;;;;;;13.80;6.78;;;26.00;57.30;;;;;;5052361;28;20457;-73
2022/06/23 04:21:26;;;;;;;10.43;5.72;;;26.10;57.40;;;;;;5052207;28;20039;-71
2022/06/23 04:23:58;;;;;;;12.55;6.05;;;26.10;56.90;;;;;;5051240;28;20056;-72
2022/06/23 04:26:37;;;;;;;15.23;5.90;;;26.10;56.60;;;;;;5051219;28;20027;-71
2022/06/23 04:29:09;;;;;;;14.73;5.93;;;26.20;56.40;;;;;;5052238;28;20037;-72
2022/06/23 04:31:38;;;;;;;10.75;6.35;;;26.30;56.10;;;;;;5052432;28;20036;-71
2022/06/23 04:34:04;;;;;;;11.88;6.07;;;26.30;56.30;;;;;;5052889;28;20041;-70
2022/06/23 04:36:33;;;;;;;13.82;5.55;;;26.40;56.40;;;;;;5052674;28;20105;-72
2022/06/23 04:39:08;;;;;;;12.88;5.45;;;26.40;56.60;;;;;;5052356;28;20090;-71
2022/06/23 04:41:37;;;;;;;10.20;6.32;;;26.40;56.50;;;;;;5052267;28;20478;-70
2022/06/23 04:44:17;;;;;;;12.73;5.80;;;26.50;56.40;;;;;;5052505;28;20060;-72
2022/06/23 04:46:51;;;;;;;10.00;5.88;;;26.40;56.30;;;;;;5052463;28;20021;-71
2022/06/23 04:49:36;;;;;;;12.68;6.68;;;26.50;56.00;;;;;;5052116;28;20033;-70
2022/06/23 04:52:21;;;;;;;14.27;6.70;;;26.60;54.50;;;;;;5051773;28;20041;-71
2022/06/23 04:55:07;;;;;;;12.13;6.32;;;26.70;53.90;;;;;;5052250;28;20453;-72
2022/06/23 04:57:57;;;;;;;13.38;5.72;;;26.70;52.00;;;;;;5055680;28;20025;-74
2022/06/23 05:00:27;;;;;;;15.85;6.35;;;26.80;52.80;;;;;;5055313;28;20036;-73
2022/06/23 05:03:11;;;;;;;15.50;6.13;;;26.90;52.80;;;;;;5055597;28;20025;-74
2022/06/23 05:05:38;;;;;;;13.25;6.22;;;27.00;50.80;;;;;;5054537;28;20024;-73
2022/06/23 05:08:05;;;;;;;15.98;5.40;;;27.20;51.60;;;;;;5055507;28;20033;-72
2022/06/23 05:10:37;;;;;;;10.93;6.10;;;27.20;51.20;;;;;;5055364;28;20056;-71
2022/06/23 05:13:19;;;;;;;11.98;6.15;;;27.30;50.90;;;;;;5055789;28;20036;-71
2022/06/23 05:16:05;;;;;;;20.52;6.15;;;27.40;50.20;;;;;;5055607;28;20461;-72
2022/06/23 05:18:42;;;;;;;15.50;6.65;;;27.50;49.60;;;;;;5055413;28;20033;-71
2022/06/23 05:21:14;;;;;;;12.75;6.88;;;27.60;48.00;;;;;;5055431;28;20032;-71
2022/06/23 05:23:42;;;;;;;11.23;5.75;;;27.70;49.30;;;;;;5054169;28;20161;-77
2022/06/23 05:26:26;;;;;;;13.35;6.40;;;27.80;49.00;;;;;;5053730;28;20040;-72
2022/06/23 05:29:04;;;;;;;11.60;6.63;;;27.80;48.80;;;;;;5055070;28;20027;-76
2022/06/23 05:31:34;;;;;;;13.80;6.70;;;27.80;48.60;;;;;;5055143;28;20044;-78
2022/06/23 05:34:18;;;;;;;18.83;6.80;;;27.80;48.70;;;;;;5055263;28;20067;-80
2022/06/23 05:36:48;;;;;;;16.23;6.72;;;27.80;48.80;;;;;;5055834;28;20029;-74
2022/06/23 05:39:30;;;;;;;15.65;6.63;;;27.80;49.00;;;;;;5054826;28;20510;-74
2022/06/23 05:42:00;;;;;;;17.70;6.57;;;27.80;47.10;;;;;;5036261;28;20029;-76
2022/06/23 05:44:33;;;;;;;17.63;7.38;;;28.00;48.90;;;;;;5040446;28;20029;-86
2022/06/23 05:47:01;;;;;;;16.23;6.72;;;28.30;46.90;;;;;;5036078;28;20029;-86
2022/06/23 05:49:34;;;;;;;13.30;6.88;;;28.40;48.00;;;;;;5035891;28;20100;-82
2022/06/23 05:52:14;;;;;;;17.00;6.75;;;28.40;47.70;;;;;;5035448;28;20426;-80
2022/06/23 05:55:02;;;;;;;14.20;7.03;;;28.30;47.70;;;;;;5035024;28;20390;-76
2022/06/23 05:57:49;;;;;;;15.02;7.10;;;28.10;48.10;;;;;;5035080;28;20040;-74
2022/06/23 06:00:27;;;;;;;14.63;6.93;;;28.00;46.60;;;;;;5039834;28;20421;-75
2022/06/23 06:03:11;;;;;;;15.30;6.93;;;28.00;48.20;;;;;;5048450;28;20090;-79
2022/06/23 06:05:44;;;;;;;17.48;7.28;;;28.00;47.10;;;;;;5054616;28;20040;-79
2022/06/23 06:08:22;;;;;;;18.92;6.95;;;28.10;48.50;;;;;;5036160;28;20038;-78
2022/06/23 06:10:49;;;;;;;15.25;6.38;;;28.20;48.40;;;;;;5034713;28;20152;-76
2022/06/23 06:13:23;;;;;;;15.23;6.93;;;28.20;48.10;;;;;;5036903;28;20017;-72
2022/06/23 06:15:55;;;;;;;18.08;7.38;;;28.20;47.00;;;;;;5036787;28;20118;-72
2022/06/23 06:18:28;;;;;;;15.77;7.63;;;28.20;48.70;;;;;;5034299;28;20158;-74
2022/06/23 06:20:57;;;;;;;18.52;7.80;;;28.20;48.50;;;;;;5032839;28;20065;-73
2022/06/23 06:23:53;;;;;;;18.42;7.43;;;28.20;48.80;;;;;;5049246;28;20405;-73
2022/06/23 06:26:23;;;;;;;12.68;7.03;;;28.30;47.30;;;;;;5052514;28;20033;-72
2022/06/23 06:28:49;;;;;;;12.43;6.65;;;28.60;47.80;;;;;;5036454;28;20071;-73
2022/06/23 06:31:23;;;;;;;20.52;7.70;;;29.00;47.10;;;;;;5032624;28;20041;-73
2022/06/23 06:34:05;;;;;;;18.90;7.18;;;29.50;45.50;;;;;;5036659;28;20145;-73
2022/06/23 06:36:36;;;;;;;18.45;7.20;;;29.90;45.00;;;;;;5039925;28;20025;-73
2022/06/23 06:39:27;;;;;;;21.90;6.22;;;30.30;45.50;;;;;;5048571;28;20032;-72
2022/06/23 06:41:58;;;;;;;18.52;6.75;;;30.60;44.10;;;;;;5053806;28;20044;-71
2022/06/23 06:44:24;;;;;;;13.07;5.43;;;30.90;46.40;;;;;;5052374;28;20090;-72
2022/06/23 06:46:50;;;;;;;11.77;5.35;;;30.90;44.40;;;;;;5053614;28;20115;-74
2022/06/23 06:49:21;;;;;;;14.57;5.65;;;31.00;44.40;;;;;;5053406;28;20446;-73
2022/06/23 06:51:50;;;;;;;11.38;4.75;;;31.00;44.50;;;;;;5053513;28;20041;-70
2022/06/23 06:54:34;;;;;;;13.93;4.78;;;31.10;44.30;;;;;;5053445;28;20086;-70
2022/06/23 06:57:04;;;;;;;9.02;4.35;;;31.30;43.40;;;;;;5053493;28;20108;-71
2022/06/23 06:59:51;;;;;;;11.52;5.15;;;31.50;43.70;;;;;;5053762;28;20032;-71
2022/06/23 07:02:30;;;;;;;19.88;6.05;;;31.50;43.60;;;;;;5053324;28;20482;-72
2022/06/23 07:05:28;;;;;;;20.95;5.97;;;31.40;43.90;;;;;;5053366;28;20025;-73
2022/06/23 07:08:01;;;;;;;19.58;5.68;;;31.20;44.10;;;;;;5053393;28;20496;-71
2022/06/23 07:10:46;;;;;;;9.63;5.97;;;30.90;45.20;;;;;;5052965;28;20029;-70
2022/06/23 07:13:24;;;;;;;22.63;6.70;;;30.80;45.70;;;;;;5042692;28;20486;-72
2022/06/23 07:16:03;;;;;;;12.23;4.82;;;30.70;46.10;;;;;;5033411;28;20513;-70
2022/06/23 07:19:17;;;;;;;16.65;5.03;;;30.60;46.50;;;;;;5032730;28;20483;-71
2022/06/23 07:21:47;;;;;;;12.88;4.93;;;30.50;45.60;;;;;;5032547;28;20128;-70
2022/06/23 07:24:23;;;;;;;10.60;4.75;;;30.60;47.90;;;;;;5051167;28;20578;-70
2022/06/23 07:26:59;;;;;;;12.75;3.97;;;30.70;46.30;;;;;;5046764;28;20028;-71
2022/06/23 07:29:46;;;;;;;10.80;3.97;;;30.80;47.10;;;;;;5051349;28;20108;-71
2022/06/23 07:32:38;;;;;;;9.07;4.10;;;30.90;47.90;;;;;;5052881;28;20025;-71
2022/06/23 07:35:19;;;;;;;13.13;4.45;;;31.00;48.60;;;;;;5052621;28;20440;-70
2022/06/23 07:38:08;;;;;;;21.98;4.35;;;31.00;48.30;;;;;;5052558;28;20021;-70
2022/06/23 07:40:47;;;;;;;11.55;4.40;;;30.80;50.20;;;;;;5041819;28;20078;-70
2022/06/23 07:43:24;;;;;;;10.30;4.68;;;30.80;50.40;;;;;;5052364;28;20029;-72
2022/06/23 07:46:08;;;;;;;12.95;4.60;;;30.70;51.20;;;;;;5052322;28;20031;-69
2022/06/23 07:48:36;;;;;;;11.15;4.40;;;30.60;51.00;;;;;;5052494;28;20414;-70
2022/06/23 07:51:05;;;;;;;11.15;4.70;;;30.60;51.70;;;;;;5051803;28;20053;-71
2022/06/23 07:53:41;;;;;;;10.93;4.18;;;30.70;50.70;;;;;;5052042;28;20110;-70
2022/06/23 07:56:12;;;;;;;10.18;4.60;;;30.70;51.40;;;;;;5051960;28;20033;-69
2022/06/23 07:58:44;;;;;;;9.32;4.20;;;30.70;51.70;;;;;;5052267;28;20017;-72
2022/06/23 08:01:17;;;;;;;9.25;4.40;;;30.60;51.70;;;;;;5052230;28;20111;-71
2022/06/23 08:03:52;;;;;;;13.15;4.80;;;30.50;52.20;;;;;;5052633;28;20524;-72
2022/06/23 08:06:21;;;;;;;12.05;4.65;;;30.40;51.50;;;;;;5052660;28;20024;-71
2022/06/23 08:08:50;;;;;;;12.60;4.63;;;30.30;51.40;;;;;;5051984;28;20017;-71
2022/06/23 08:14:08;;;;;;;14.63;4.65;;;30.20;51.60;;;;;;5051835;28;20111;-72
2022/06/23 08:16:49;;;;;;;9.77;4.63;;;30.10;51.70;;;;;;5051790;28;20013;-71
2022/06/23 08:19:17;;;;;;;9.63;4.38;;;30.10;51.90;;;;;;5051732;28;20025;-70
2022/06/23 08:21:55;;;;;;;11.70;4.63;;;30.00;51.60;;;;;;5051707;28;20017;-70
2022/06/23 08:24:23;;;;;;;9.43;4.10;;;30.00;51.80;;;;;;5052073;28;20488;-71
2022/06/23 08:27:04;;;;;;;15.07;4.15;;;30.00;51.90;;;;;;5051853;28;20075;-71
2022/06/23 08:29:39;;;;;;;13.93;5.20;;;30.00;51.10;;;;;;5053067;28;20497;-70
2022/06/23 08:32:05;;;;;;;14.63;4.85;;;30.00;50.40;;;;;;5055723;28;20095;-71
2022/06/23 08:34:33;;;;;;;10.05;5.28;;;30.00;51.40;;;;;;5055519;28;20043;-69
2022/06/23 08:37:18;;;;;;;10.48;4.45;;;30.00;51.60;;;;;;5055468;28;20532;-70
2022/06/23 08:39:53;;;;;;;8.18;4.47;;;30.00;51.50;;;;;;5053959;28;20024;-70
2022/06/23 08:42:32;;;;;;;10.73;4.32;;;30.00;52.20;;;;;;5055380;28;20013;-69
2022/06/23 08:45:22;;;;;;;11.00;4.40;;;30.00;51.70;;;;;;5055352;28;20104;-70
2022/06/23 08:47:54;;;;;;;12.25;4.63;;;29.90;50.50;;;;;;5055590;28;20052;-71
2022/06/23 08:50:35;;;;;;;9.80;4.33;;;29.90;51.80;;;;;;5055072;28;20055;-73
2022/06/23 08:53:03;;;;;;;10.80;5.00;;;29.90;51.90;;;;;;5055178;28;20100;-72
2022/06/23 08:55:55;;;;;;;11.88;4.70;;;29.90;50.70;;;;;;5055506;28;20037;-71
2022/06/23 08:58:49;;;;;;;11.43;4.53;;;30.00;50.90;;;;;;5055265;28;20029;-70
2022/06/23 09:01:23;;;;;;;15.82;4.93;;;29.90;52.30;;;;;;5055199;28;20036;-71
2022/06/23 09:04:16;;;;;;;14.70;5.05;;;29.90;51.00;;;;;;5055245;28;20032;-71
2022/06/23 09:06:56;;;;;;;10.23;4.78;;;29.90;51.40;;;;;;5055384;28;20032;-70
2022/06/23 09:09:34;;;;;;;13.98;5.25;;;29.90;51.70;;;;;;5055115;28;20052;-71
2022/06/23 09:12:06;;;;;;;12.50;5.38;;;29.90;53.20;;;;;;5054833;28;20456;-70
2022/06/23 09:14:41;;;;;;;14.70;4.90;;;30.00;53.10;;;;;;5054867;28;20051;-70
2022/06/23 09:17:36;;;;;;;13.80;4.90;;;30.10;51.90;;;;;;5054971;28;20066;-68
2022/06/23 09:20:02;;;;;;;11.18;4.70;;;30.10;51.90;;;;;;5050025;28;20047;-71
2022/06/23 09:22:46;;;;;;;15.95;5.00;;;30.20;53.30;;;;;;5055324;28;20024;-73
2022/06/23 09:25:26;;;;;;;16.73;5.43;;;30.20;52.40;;;;;;5055072;28;20025;-74
2022/06/23 09:28:11;;;;;;;13.65;5.40;;;30.20;52.70;;;;;;5055018;28;20029;-71
2022/06/23 09:30:43;;;;;;;12.05;5.22;;;30.20;52.60;;;;;;5054540;28;20023;-69
2022/06/23 09:33:27;;;;;;;9.52;4.88;;;30.20;54.30;;;;;;5054704;28;20466;-70
2022/06/23 09:36:16;;;;;;;15.57;5.47;;;30.30;54.30;;;;;;5054608;28;20036;-70
2022/06/23 09:39:15;;;;;;;15.63;6.38;;;30.30;54.50;;;;;;5052995;28;20027;-71
2022/06/23 09:42:08;;;;;;;11.50;5.60;;;30.30;53.00;;;;;;5053864;28;20033;-69
2022/06/23 09:44:43;;;;;;;15.80;5.53;;;30.30;53.20;;;;;;5054738;28;20103;-69
2022/06/23 09:47:29;;;;;;;12.70;5.43;;;30.30;53.10;;;;;;5052981;28;20811;-70
2022/06/23 09:50:19;;;;;;;12.73;5.60;;;30.30;53.40;;;;;;5052951;28;20083;-69
2022/06/23 09:53:13;;;;;;;9.82;4.68;;;30.30;53.60;;;;;;5054712;28;20481;-69
2022/06/23 09:56:19;;;;;;;12.48;5.05;;;30.30;53.80;;;;;;5052884;28;20131;-69
2022/06/23 09:59:09;;;;;;;12.88;5.47;;;30.20;54.20;;;;;;5054237;28;20025;-69
2022/06/23 10:02:11;;;;;;;11.65;5.70;;;30.20;54.60;;;;;;5052676;28;20044;-69
2022/06/23 10:05:02;;;;;;;13.80;6.18;;;30.20;56.90;;;;;;5054254;28;20100;-69
2022/06/23 10:07:53;;;;;;;15.73;6.15;;;30.10;58.40;;;;;;5053320;28;20033;-68
2022/06/23 10:10:35;;;;;;;15.77;6.50;;;30.10;60.20;;;;;;5054167;28;20358;-70
2022/06/23 10:13:19;;;;;;;20.00;7.43;;;30.00;62.00;;;;;;5054235;28;20128;-69
2022/06/23 10:15:44;;;;;;;11.77;6.18;;;29.90;62.80;;;;;;5054146;28;20516;-71
2022/06/23 10:18:41;;;;;;;15.40;6.75;;;29.90;63.40;;;;;;5054221;28;20025;-68
2022/06/23 10:21:40;;;;;;;23.30;6.57;;;30.00;64.40;;;;;;5054085;28;20051;-69
2022/06/23 10:24:15;;;;;;;15.18;6.10;;;30.00;64.70;;;;;;5053912;28;20028;-69
2022/06/23 10:27:04;;;;;;;16.52;6.82;;;30.00;64.50;;;;;;5053954;28;20096;-70
2022/06/23 10:30:00;;;;;;;14.43;6.45;;;30.00;65.00;;;;;;5053793;28;20040;-69
2022/06/23 10:32:42;;;;;;;16.75;6.63;;;30.10;65.10;;;;;;5054885;28;20048;-69
2022/06/23 10:35:52;;;;;;;12.27;7.13;;;30.10;65.30;;;;;;5055361;28;20060;-71
2022/06/23 10:38:31;;;;;;;13.07;7.18;;;30.00;65.30;;;;;;5062285;28;20029;-72
2022/06/23 10:41:03;;;;;;;15.90;7.13;;;30.00;64.80;;;;;;5057578;28;20431;-72
2022/06/23 10:43:57;;;;;;;19.42;7.70;;;30.00;65.20;;;;;;5054180;28;20082;-74
2022/06/23 10:46:24;;;;;;;24.13;7.22;;;29.90;66.40;;;;;;5053895;28;20036;-73
2022/06/23 10:49:09;;;;;;;16.17;7.18;;;29.90;66.50;;;;;;5053650;28;20035;-73
2022/06/23 10:51:48;;;;;;;18.80;7.22;;;29.90;67.50;;;;;;5051696;28;20569;-73
2022/06/23 10:54:42;;;;;;;14.90;7.10;;;29.90;67.20;;;;;;5052363;28;20047;-72
2022/06/23 10:57:26;;;;;;;20.30;8.85;;;29.90;67.70;;;;;;5053589;28;20132;-71
2022/06/23 11:00:09;;;;;;;19.45;7.65;;;29.90;68.20;;;;;;5053260;28;20068;-72
2022/06/23 11:03:12;;;;;;;22.83;7.85;;;30.00;69.00;;;;;;5051868;28;20378;-71
2022/06/23 11:06:17;;;;;;;24.70;8.80;;;30.00;68.60;;;;;;5053207;28;20036;-73
2022/06/23 11:08:42;;;;;;;16.52;7.22;;;30.00;69.60;;;;;;5042180;28;20037;-80
2022/06/23 11:11:41;;;;;;;17.25;7.00;;;30.00;69.20;;;;;;5053155;28;20113;-73
2022/06/23 11:14:33;;;;;;;15.60;7.50;;;30.00;70.00;;;;;;5053032;28;20059;-72
2022/06/23 11:17:17;;;;;;;39.78;10.13;;;30.00;70.20;;;;;;5052905;28;20028;-72
2022/06/23 11:19:55;;;;;;;23.42;7.53;;;30.00;70.10;;;;;;5051734;28;20041;-74
2022/06/23 11:22:46;;;;;;;21.23;7.78;;;30.00;69.90;;;;;;5052993;28;20024;-72
2022/06/23 11:25:35;;;;;;;17.17;7.15;;;30.10;69.60;;;;;;5052997;28;20053;-75
2022/06/23 11:28:07;;;;;;;19.50;7.32;;;30.10;69.30;;;;;;5051367;28;20167;-75
2022/06/23 11:31:05;;;;;;;15.40;7.22;;;30.10;67.80;;;;;;5053016;28;20054;-70
2022/06/23 11:34:05;;;;;;;17.58;6.95;;;30.20;67.60;;;;;;5052862;28;20029;-70
2022/06/23 11:36:50;;;;;;;15.73;6.40;;;30.30;66.00;;;;;;5052684;28;20029;-70
2022/06/23 11:39:34;;;;;;;46.72;8.30;;;30.30;63.60;;;;;;5051332;28;20055;-76
2022/06/23 11:42:20;;;;;;;58.78;10.40;;;30.40;62.60;;;;;;5051729;28;20035;-74
2022/06/23 11:45:18;;;;;;;42.45;9.30;;;30.50;61.40;;;;;;5053016;28;20056;-77
2022/06/23 11:47:47;;;;;;;21.92;7.05;;;30.60;59.10;;;;;;5052414;28;20488;-72
2022/06/23 11:50:40;;;;;;;15.73;6.10;;;30.70;58.20;;;;;;5052079;28;20021;-70
2022/06/23 11:53:41;;;;;;;9.47;5.93;;;30.70;56.30;;;;;;5052449;28;20543;-75
2022/06/23 11:56:36;;;;;;;15.00;6.40;;;30.70;54.70;;;;;;5052433;28;20308;-74
2022/06/23 11:59:16;;;;;;;15.25;6.00;;;30.80;54.10;;;;;;5052592;28;20053;-76
2022/06/23 12:01:42;;;;;;;14.45;6.07;;;30.80;53.20;;;;;;5052675;28;20418;-72
2022/06/23 12:04:29;;;;;;;17.15;6.00;;;30.90;53.90;;;;;;5053028;28;20131;-72
2022/06/23 12:07:19;;;;;;;12.95;5.80;;;31.00;54.00;;;;;;5056285;28;20390;-71
2022/06/23 12:09:51;;;;;;;12.93;6.88;;;31.10;52.30;;;;;;5057267;28;20027;-74
2022/06/23 12:12:17;;;;;;;24.25;6.53;;;31.10;53.20;;;;;;5056571;28;20025;-72
2022/06/23 12:14:44;;;;;;;15.10;6.82;;;31.20;53.60;;;;;;5056172;28;20048;-69
2022/06/23 12:17:18;;;;;;;13.93;5.53;;;31.20;53.80;;;;;;5056162;28;20122;-74
2022/06/23 12:19:59;;;;;;;15.50;5.63;;;31.20;53.60;;;;;;5056443;28;20028;-73
2022/06/23 12:22:34;;;;;;;14.18;5.20;;;31.30;51.00;;;;;;5056154;28;20059;-71
2022/06/23 12:25:17;;;;;;;22.00;5.57;;;31.40;50.70;;;;;;5056507;28;20374;-69
2022/06/23 12:28:25;;;;;;;18.30;9.75;;;31.40;49.80;;;;;;5056304;28;20025;-69
2022/06/23 12:31:19;;;;;;;11.70;7.18;;;31.50;50.20;;;;;;5051060;28;20107;-74
2022/06/23 12:34:03;;;;;;;60.40;7.33;;;31.60;49.60;;;;;;5054975;28;20040;-72
2022/06/23 12:37:00;;;;;;;14.75;5.70;;;31.60;49.70;;;;;;5056287;28;20104;-76
2022/06/23 12:39:48;;;;;;;14.40;6.35;;;31.60;49.10;;;;;;5049317;28;20090;-74
2022/06/23 12:42:37;;;;;;;21.05;6.80;;;31.60;49.10;;;;;;5055791;28;20090;-74
2022/06/23 12:45:22;;;;;;;18.67;6.13;;;31.60;49.50;;;;;;5055749;28;20051;-72
2022/06/23 12:47:59;;;;;;;20.98;6.13;;;31.70;48.20;;;;;;5055370;28;20105;-73
2022/06/23 12:50:40;;;;;;;20.95;6.03;;;31.70;48.10;;;;;;5055386;28;20060;-68
2022/06/23 12:53:32;;;;;;;12.73;6.07;;;31.80;48.00;;;;;;5055466;28;20482;-69
2022/06/23 12:56:15;;;;;;;23.77;6.30;;;31.90;47.90;;;;;;5045304;28;20045;-71
2022/06/23 12:59:09;;;;;;;13.18;5.60;;;31.90;47.60;;;;;;5054130;28;20032;-72
2022/06/23 13:01:52;;;;;;;13.50;6.18;;;31.90;47.40;;;;;;5055286;28;20108;-70
2022/06/23 13:04:52;;;;;;;14.37;5.40;;;31.90;48.10;;;;;;5055412;28;20039;-72
2022/06/23 13:07:42;;;;;;;14.18;5.88;;;31.90;47.10;;;;;;5051689;28;20259;-73
2022/06/23 13:10:55;;;;;;;15.55;4.75;;;32.00;46.90;;;;;;5055231;28;20567;-72
2022/06/23 13:13:23;;;;;;;16.05;5.43;;;32.00;46.30;;;;;;5050376;28;20095;-71
2022/06/23 13:15:58;;;;;;;13.25;5.50;;;32.00;46.20;;;;;;5054097;28;20029;-72
2022/06/23 13:18:53;;;;;;;17.00;7.38;;;32.10;45.80;;;;;;5054875;28;20029;-72
2022/06/23 13:21:27;;;;;;;20.13;6.38;;;32.20;45.70;;;;;;5054876;28;20470;-69
2022/06/23 13:24:16;;;;;;;17.58;6.35;;;32.30;45.80;;;;;;5055036;28;20028;-73
2022/06/23 13:26:57;;;;;;;17.05;5.65;;;32.40;45.60;;;;;;5055118;28;20044;-72
2022/06/23 13:29:26;;;;;;;18.05;5.85;;;32.60;44.70;;;;;;5054881;28;20358;-73
2022/06/23 13:32:16;;;;;;;19.67;5.85;;;32.70;44.60;;;;;;5055051;28;20017;-70
2022/06/23 13:34:50;;;;;;;16.90;10.40;;;32.80;43.90;;;;;;5055099;28;20044;-71
2022/06/23 13:37:26;;;;;;;17.17;6.03;;;32.90;44.10;;;;;;5056192;28;20013;-73
2022/06/23 13:40:13;;;;;;;18.05;6.60;;;33.10;44.00;;;;;;5054841;28;20501;-71
2022/06/23 13:42:51;;;;;;;16.77;5.70;;;33.10;43.50;;;;;;5054541;28;20068;-73
2022/06/23 13:45:23;;;;;;;17.13;6.00;;;33.20;43.40;;;;;;5053155;28;20017;-72
2022/06/23 13:48:19;;;;;;;16.17;5.40;;;33.20;43.50;;;;;;5053383;28;20036;-72
2022/06/23 13:50:57;;;;;;;18.60;6.65;;;33.30;43.50;;;;;;5041724;22;20511;-77
2022/06/23 13:53:41;;;;;;;20.25;6.65;;;33.40;43.20;;;;;;4997100;28;20045;-76